sensor_id;sensor_type;location;lat;lon;timestamp;temperature;humidity
8896;DHT22;4484;48.928;10.066;2023-06-22T00:00:12;17.80;99.90
8896;DHT22;4484;48.928;10.066;2023-06-22T00:02:39;17.80;99.90
8896;DHT22;4484;48.928;10.066;2023-06-22T00:05:06;17.80;99.90
8896;DHT22;4484;48.928;10.066;2023-06-22T00:07:33;17.70;99.90
8896;DHT22;4484;48.928;10.066;2023-06-22T00:10:00;17.70;99.90
8896;DHT22;4484;48.928;10.066;2023-06-22T00:12:27;17.70;99.90
8896;DHT22;4484;48.928;10.066;2023-06-22T00:14:54;17.70;99.90
8896;DHT22;4484;48.928;10.066;2023-06-22T00:17:21;17.60;99.90
8896;DHT22;4484;48.928;10.066;2023-06-22T00:19:48;17.60;99.90
8896;DHT22;4484;48.928;10.066;2023-06-22T00:22:20;17.60;99.90
8896;DHT22;4484;48.928;10.066;2023-06-22T00:24:56;17.60;99.90
8896;DHT22;4484;48.928;10.066;2023-06-22T00:27:23;17.60;99.90
8896;DHT22;4484;48.928;10.066;2023-06-22T00:29:50;17.60;99.90
8896;DHT22;4484;48.928;10.066;2023-06-22T00:32:17;17.50;99.90
8896;DHT22;4484;48.928;10.066;2023-06-22T00:34:46;17.60;99.90
8896;DHT22;4484;48.928;10.066;2023-06-22T00:37:13;17.50;99.90
8896;DHT22;4484;48.928;10.066;2023-06-22T00:39:40;17.60;99.90
8896;DHT22;4484;48.928;10.066;2023-06-22T00:42:07;17.60;99.90
8896;DHT22;4484;48.928;10.066;2023-06-22T00:44:35;17.60;99.90
8896;DHT22;4484;48.928;10.066;2023-06-22T00:47:02;17.60;99.90
8896;DHT22;4484;48.928;10.066;2023-06-22T00:49:30;17.60;99.90
8896;DHT22;4484;48.928;10.066;2023-06-22T00:51:57;17.60;99.90
8896;DHT22;4484;48.928;10.066;2023-06-22T00:54:26;17.60;99.90
8896;DHT22;4484;48.928;10.066;2023-06-22T00:56:55;17.60;99.90
8896;DHT22;4484;48.928;10.066;2023-06-22T00:59:26;17.50;99.90
8896;DHT22;4484;48.928;10.066;2023-06-22T01:01:54;17.50;99.90
8896;DHT22;4484;48.928;10.066;2023-06-22T01:04:34;17.50;99.90
8896;DHT22;4484;48.928;10.066;2023-06-22T01:07:25;17.50;99.90
8896;DHT22;4484;48.928;10.066;2023-06-22T01:12:47;17.50;99.90
8896;DHT22;4484;48.928;10.066;2023-06-22T01:15:37;17.60;99.90
8896;DHT22;4484;48.928;10.066;2023-06-22T01:18:07;17.60;99.90
8896;DHT22;4484;48.928;10.066;2023-06-22T01:20:36;17.60;99.90
8896;DHT22;4484;48.928;10.066;2023-06-22T01:23:07;17.60;99.90
8896;DHT22;4484;48.928;10.066;2023-06-22T01:28:20;17.60;99.90
8896;DHT22;4484;48.928;10.066;2023-06-22T01:30:51;17.50;99.90
8896;DHT22;4484;48.928;10.066;2023-06-22T01:33:35;17.50;99.90
8896;DHT22;4484;48.928;10.066;2023-06-22T01:36:04;17.50;99.90
8896;DHT22;4484;48.928;10.066;2023-06-22T01:38:33;17.50;99.90
8896;DHT22;4484;48.928;10.066;2023-06-22T01:41:01;17.40;99.90
8896;DHT22;4484;48.928;10.066;2023-06-22T01:43:28;17.30;99.90
8896;DHT22;4484;48.928;10.066;2023-06-22T01:45:58;17.30;99.90
8896;DHT22;4484;48.928;10.066;2023-06-22T01:48:25;17.20;99.90
8896;DHT22;4484;48.928;10.066;2023-06-22T01:50:53;17.10;99.90
8896;DHT22;4484;48.928;10.066;2023-06-22T01:53:22;17.10;99.90
8896;DHT22;4484;48.928;10.066;2023-06-22T01:55:51;17.10;99.90
8896;DHT22;4484;48.928;10.066;2023-06-22T01:58:20;17.10;99.90
8896;DHT22;4484;48.928;10.066;2023-06-22T02:00:59;17.00;99.90
8896;DHT22;4484;48.928;10.066;2023-06-22T02:03:34;17.00;99.90
8896;DHT22;4484;48.928;10.066;2023-06-22T02:06:14;17.00;99.90
8896;DHT22;4484;48.928;10.066;2023-06-22T02:08:48;17.00;99.90
8896;DHT22;4484;48.928;10.066;2023-06-22T02:11:18;17.00;99.90
8896;DHT22;4484;48.928;10.066;2023-06-22T02:13:46;16.90;99.90
8896;DHT22;4484;48.928;10.066;2023-06-22T02:16:14;16.90;99.90
8896;DHT22;4484;48.928;10.066;2023-06-22T02:18:47;16.90;99.90
8896;DHT22;4484;48.928;10.066;2023-06-22T02:21:18;16.90;99.90
8896;DHT22;4484;48.928;10.066;2023-06-22T02:23:46;16.90;99.90
8896;DHT22;4484;48.928;10.066;2023-06-22T02:26:13;17.00;99.90
8896;DHT22;4484;48.928;10.066;2023-06-22T02:28:40;17.00;99.90
8896;DHT22;4484;48.928;10.066;2023-06-22T02:31:08;16.90;99.90
8896;DHT22;4484;48.928;10.066;2023-06-22T02:33:35;17.00;99.90
8896;DHT22;4484;48.928;10.066;2023-06-22T02:36:02;17.00;99.90
8896;DHT22;4484;48.928;10.066;2023-06-22T02:38:32;17.00;99.90
8896;DHT22;4484;48.928;10.066;2023-06-22T02:41:03;17.00;99.90
8896;DHT22;4484;48.928;10.066;2023-06-22T02:43:30;17.00;99.90
8896;DHT22;4484;48.928;10.066;2023-06-22T02:45:57;17.00;99.90
8896;DHT22;4484;48.928;10.066;2023-06-22T02:48:23;17.00;99.90
8896;DHT22;4484;48.928;10.066;2023-06-22T02:50:52;17.00;99.90
8896;DHT22;4484;48.928;10.066;2023-06-22T02:53:19;16.90;99.90
8896;DHT22;4484;48.928;10.066;2023-06-22T02:55:47;16.90;99.90
8896;DHT22;4484;48.928;10.066;2023-06-22T02:58:14;16.90;99.90
8896;DHT22;4484;48.928;10.066;2023-06-22T03:00:41;16.90;99.90
8896;DHT22;4484;48.928;10.066;2023-06-22T03:03:08;16.80;99.90
8896;DHT22;4484;48.928;10.066;2023-06-22T03:05:35;16.80;99.90
8896;DHT22;4484;48.928;10.066;2023-06-22T03:08:02;16.80;99.90
8896;DHT22;4484;48.928;10.066;2023-06-22T03:10:32;16.80;99.90
8896;DHT22;4484;48.928;10.066;2023-06-22T03:12:59;16.80;99.90
8896;DHT22;4484;48.928;10.066;2023-06-22T03:15:26;16.80;99.90
8896;DHT22;4484;48.928;10.066;2023-06-22T03:17:56;16.80;99.90
8896;DHT22;4484;48.928;10.066;2023-06-22T03:20:24;16.80;99.90
8896;DHT22;4484;48.928;10.066;2023-06-22T03:22:52;16.80;99.90
8896;DHT22;4484;48.928;10.066;2023-06-22T03:25:19;16.70;99.90
8896;DHT22;4484;48.928;10.066;2023-06-22T03:27:48;16.80;99.90
8896;DHT22;4484;48.928;10.066;2023-06-22T03:30:15;16.70;99.90
8896;DHT22;4484;48.928;10.066;2023-06-22T03:32:42;16.70;99.90
8896;DHT22;4484;48.928;10.066;2023-06-22T03:35:10;16.70;99.90
8896;DHT22;4484;48.928;10.066;2023-06-22T03:37:39;16.70;99.90
8896;DHT22;4484;48.928;10.066;2023-06-22T03:40:07;16.70;99.90
8896;DHT22;4484;48.928;10.066;2023-06-22T03:42:35;16.60;99.90
8896;DHT22;4484;48.928;10.066;2023-06-22T03:45:05;16.60;99.90
8896;DHT22;4484;48.928;10.066;2023-06-22T03:47:32;16.60;99.90
8896;DHT22;4484;48.928;10.066;2023-06-22T03:50:00;16.60;99.90
8896;DHT22;4484;48.928;10.066;2023-06-22T03:52:27;16.70;99.90
8896;DHT22;4484;48.928;10.066;2023-06-22T03:54:54;16.70;99.90
8896;DHT22;4484;48.928;10.066;2023-06-22T03:57:20;16.70;99.90
8896;DHT22;4484;48.928;10.066;2023-06-22T03:59:47;16.70;99.90
8896;DHT22;4484;48.928;10.066;2023-06-22T04:02:14;16.70;99.90
8896;DHT22;4484;48.928;10.066;2023-06-22T04:04:41;16.80;99.90
8896;DHT22;4484;48.928;10.066;2023-06-22T04:07:08;16.80;99.90
8896;DHT22;4484;48.928;10.066;2023-06-22T04:09:35;16.80;99.90
8896;DHT22;4484;48.928;10.066;2023-06-22T04:12:03;16.80;99.90
8896;DHT22;4484;48.928;10.066;2023-06-22T04:14:30;16.80;99.90
8896;DHT22;4484;48.928;10.066;2023-06-22T04:16:58;16.80;99.90
8896;DHT22;4484;48.928;10.066;2023-06-22T04:19:25;16.90;99.90
8896;DHT22;4484;48.928;10.066;2023-06-22T04:21:52;16.90;99.90
8896;DHT22;4484;48.928;10.066;2023-06-22T04:24:19;16.90;99.90
8896;DHT22;4484;48.928;10.066;2023-06-22T04:26:45;16.90;99.90
8896;DHT22;4484;48.928;10.066;2023-06-22T04:29:14;16.90;99.90
8896;DHT22;4484;48.928;10.066;2023-06-22T04:31:41;17.00;99.90
8896;DHT22;4484;48.928;10.066;2023-06-22T04:34:08;17.00;99.90
8896;DHT22;4484;48.928;10.066;2023-06-22T04:36:37;17.00;99.90
8896;DHT22;4484;48.928;10.066;2023-06-22T04:39:09;17.00;99.90
8896;DHT22;4484;48.928;10.066;2023-06-22T04:41:37;17.10;99.90
8896;DHT22;4484;48.928;10.066;2023-06-22T04:46:40;17.20;99.90
8896;DHT22;4484;48.928;10.066;2023-06-22T04:49:08;17.20;99.90
8896;DHT22;4484;48.928;10.066;2023-06-22T04:51:40;17.20;99.90
8896;DHT22;4484;48.928;10.066;2023-06-22T04:54:09;17.30;99.90
8896;DHT22;4484;48.928;10.066;2023-06-22T04:56:36;17.30;99.90
8896;DHT22;4484;48.928;10.066;2023-06-22T04:59:03;17.40;99.90
8896;DHT22;4484;48.928;10.066;2023-06-22T05:01:30;17.40;99.90
8896;DHT22;4484;48.928;10.066;2023-06-22T05:04:01;17.50;99.90
8896;DHT22;4484;48.928;10.066;2023-06-22T05:06:29;17.60;99.90
8896;DHT22;4484;48.928;10.066;2023-06-22T05:08:57;17.70;99.90
8896;DHT22;4484;48.928;10.066;2023-06-22T05:11:27;17.70;99.90
8896;DHT22;4484;48.928;10.066;2023-06-22T05:13:55;17.80;99.90
8896;DHT22;4484;48.928;10.066;2023-06-22T05:16:23;17.90;99.90
8896;DHT22;4484;48.928;10.066;2023-06-22T05:18:55;18.00;99.90
8896;DHT22;4484;48.928;10.066;2023-06-22T05:21:24;18.00;99.90
8896;DHT22;4484;48.928;10.066;2023-06-22T05:23:51;18.10;99.90
8896;DHT22;4484;48.928;10.066;2023-06-22T05:26:22;18.20;99.90
8896;DHT22;4484;48.928;10.066;2023-06-22T05:28:48;18.30;99.90
8896;DHT22;4484;48.928;10.066;2023-06-22T05:31:16;18.30;99.90
8896;DHT22;4484;48.928;10.066;2023-06-22T05:33:44;18.40;99.90
8896;DHT22;4484;48.928;10.066;2023-06-22T05:36:11;18.50;99.90
8896;DHT22;4484;48.928;10.066;2023-06-22T05:38:40;18.60;99.90
8896;DHT22;4484;48.928;10.066;2023-06-22T05:41:07;18.70;99.90
8896;DHT22;4484;48.928;10.066;2023-06-22T05:43:34;18.80;99.90
8896;DHT22;4484;48.928;10.066;2023-06-22T05:46:02;19.00;99.90
8896;DHT22;4484;48.928;10.066;2023-06-22T05:48:29;19.10;99.90
8896;DHT22;4484;48.928;10.066;2023-06-22T05:50:56;19.20;99.90
8896;DHT22;4484;48.928;10.066;2023-06-22T05:53:23;19.30;99.90
8896;DHT22;4484;48.928;10.066;2023-06-22T05:55:50;19.40;99.90
8896;DHT22;4484;48.928;10.066;2023-06-22T05:58:17;19.50;99.90
8896;DHT22;4484;48.928;10.066;2023-06-22T06:00:44;19.60;99.90
8896;DHT22;4484;48.928;10.066;2023-06-22T06:03:11;19.80;99.90
8896;DHT22;4484;48.928;10.066;2023-06-22T06:05:41;19.90;99.90
8896;DHT22;4484;48.928;10.066;2023-06-22T06:08:08;19.90;99.90
8896;DHT22;4484;48.928;10.066;2023-06-22T06:10:35;20.00;99.90
8896;DHT22;4484;48.928;10.066;2023-06-22T06:13:02;20.10;99.90
8896;DHT22;4484;48.928;10.066;2023-06-22T06:15:32;20.30;99.90
8896;DHT22;4484;48.928;10.066;2023-06-22T06:17:59;20.40;99.90
8896;DHT22;4484;48.928;10.066;2023-06-22T06:20:26;20.50;99.90
8896;DHT22;4484;48.928;10.066;2023-06-22T06:22:57;20.70;99.90
8896;DHT22;4484;48.928;10.066;2023-06-22T06:25:24;20.80;99.90
8896;DHT22;4484;48.928;10.066;2023-06-22T06:27:53;20.90;99.90
8896;DHT22;4484;48.928;10.066;2023-06-22T06:30:21;21.00;99.90
8896;DHT22;4484;48.928;10.066;2023-06-22T06:32:49;21.20;99.90
8896;DHT22;4484;48.928;10.066;2023-06-22T06:35:17;21.40;99.90
8896;DHT22;4484;48.928;10.066;2023-06-22T06:37:45;21.70;99.90
8896;DHT22;4484;48.928;10.066;2023-06-22T06:40:13;21.80;99.90
8896;DHT22;4484;48.928;10.066;2023-06-22T06:42:43;22.00;99.90
8896;DHT22;4484;48.928;10.066;2023-06-22T06:45:14;22.20;99.90
8896;DHT22;4484;48.928;10.066;2023-06-22T06:47:41;22.30;99.90
8896;DHT22;4484;48.928;10.066;2023-06-22T06:50:10;22.60;99.90
8896;DHT22;4484;48.928;10.066;2023-06-22T06:52:38;22.70;99.90
8896;DHT22;4484;48.928;10.066;2023-06-22T06:55:05;22.70;99.90
8896;DHT22;4484;48.928;10.066;2023-06-22T06:57:39;22.70;99.90
8896;DHT22;4484;48.928;10.066;2023-06-22T07:00:10;22.80;99.90
8896;DHT22;4484;48.928;10.066;2023-06-22T07:02:40;22.90;99.90
8896;DHT22;4484;48.928;10.066;2023-06-22T07:05:08;23.10;99.90
8896;DHT22;4484;48.928;10.066;2023-06-22T07:07:35;23.00;99.90
8896;DHT22;4484;48.928;10.066;2023-06-22T07:10:05;23.20;99.90
8896;DHT22;4484;48.928;10.066;2023-06-22T07:12:33;23.50;99.90
8896;DHT22;4484;48.928;10.066;2023-06-22T07:15:05;23.80;99.90
8896;DHT22;4484;48.928;10.066;2023-06-22T07:17:32;24.10;99.90
8896;DHT22;4484;48.928;10.066;2023-06-22T07:19:59;24.40;99.90
8896;DHT22;4484;48.928;10.066;2023-06-22T07:22:26;24.60;99.90
8896;DHT22;4484;48.928;10.066;2023-06-22T07:24:53;24.60;99.90
8896;DHT22;4484;48.928;10.066;2023-06-22T07:27:20;24.90;99.90
8896;DHT22;4484;48.928;10.066;2023-06-22T07:29:48;25.30;99.90
8896;DHT22;4484;48.928;10.066;2023-06-22T07:32:14;25.50;99.90
8896;DHT22;4484;48.928;10.066;2023-06-22T07:34:41;25.50;99.90
8896;DHT22;4484;48.928;10.066;2023-06-22T07:37:08;25.60;99.90
8896;DHT22;4484;48.928;10.066;2023-06-22T07:39:35;26.00;99.90
8896;DHT22;4484;48.928;10.066;2023-06-22T07:42:04;26.30;99.90
8896;DHT22;4484;48.928;10.066;2023-06-22T07:44:31;26.80;99.90
8896;DHT22;4484;48.928;10.066;2023-06-22T07:46:58;27.30;99.90
8896;DHT22;4484;48.928;10.066;2023-06-22T07:49:25;27.40;99.90
8896;DHT22;4484;48.928;10.066;2023-06-22T07:51:52;27.60;99.90
8896;DHT22;4484;48.928;10.066;2023-06-22T07:54:19;27.50;99.90
8896;DHT22;4484;48.928;10.066;2023-06-22T07:56:46;27.50;99.90
8896;DHT22;4484;48.928;10.066;2023-06-22T07:59:13;27.70;99.90
8896;DHT22;4484;48.928;10.066;2023-06-22T08:01:40;28.00;99.90
8896;DHT22;4484;48.928;10.066;2023-06-22T08:04:07;28.20;99.90
8896;DHT22;4484;48.928;10.066;2023-06-22T08:06:35;28.50;99.90
8896;DHT22;4484;48.928;10.066;2023-06-22T08:09:02;28.70;99.90
8896;DHT22;4484;48.928;10.066;2023-06-22T08:11:30;28.70;99.90
8896;DHT22;4484;48.928;10.066;2023-06-22T08:13:56;28.70;99.90
8896;DHT22;4484;48.928;10.066;2023-06-22T08:16:25;28.70;99.90
8896;DHT22;4484;48.928;10.066;2023-06-22T08:18:52;28.80;99.90
8896;DHT22;4484;48.928;10.066;2023-06-22T08:21:19;29.00;99.90
8896;DHT22;4484;48.928;10.066;2023-06-22T08:23:46;29.30;99.90
8896;DHT22;4484;48.928;10.066;2023-06-22T08:26:14;29.70;99.90
8896;DHT22;4484;48.928;10.066;2023-06-22T08:28:41;29.60;99.90
8896;DHT22;4484;48.928;10.066;2023-06-22T08:31:08;29.90;99.90
8896;DHT22;4484;48.928;10.066;2023-06-22T08:33:35;29.90;99.90
8896;DHT22;4484;48.928;10.066;2023-06-22T08:36:02;30.00;99.80
8896;DHT22;4484;48.928;10.066;2023-06-22T08:38:29;30.10;99.70
8896;DHT22;4484;48.928;10.066;2023-06-22T08:40:56;30.20;99.40
8896;DHT22;4484;48.928;10.066;2023-06-22T08:43:23;30.10;98.30
8896;DHT22;4484;48.928;10.066;2023-06-22T08:45:50;29.80;98.90
8896;DHT22;4484;48.928;10.066;2023-06-22T08:48:17;29.80;98.20
8896;DHT22;4484;48.928;10.066;2023-06-22T08:50:44;29.80;98.50
8896;DHT22;4484;48.928;10.066;2023-06-22T08:53:11;30.20;99.50
8896;DHT22;4484;48.928;10.066;2023-06-22T08:55:37;30.50;98.10
8896;DHT22;4484;48.928;10.066;2023-06-22T08:58:04;30.70;97.10
8896;DHT22;4484;48.928;10.066;2023-06-22T09:00:32;30.80;97.10
8896;DHT22;4484;48.928;10.066;2023-06-22T09:03:01;30.90;96.40
8896;DHT22;4484;48.928;10.066;2023-06-22T09:05:29;31.00;95.70
8896;DHT22;4484;48.928;10.066;2023-06-22T09:07:56;31.20;95.90
8896;DHT22;4484;48.928;10.066;2023-06-22T09:10:25;31.40;95.20
8896;DHT22;4484;48.928;10.066;2023-06-22T09:12:53;31.40;94.30
8896;DHT22;4484;48.928;10.066;2023-06-22T09:15:20;31.40;94.60
8896;DHT22;4484;48.928;10.066;2023-06-22T09:17:47;31.40;94.50
8896;DHT22;4484;48.928;10.066;2023-06-22T09:20:15;31.30;94.00
8896;DHT22;4484;48.928;10.066;2023-06-22T09:22:42;31.40;94.00
8896;DHT22;4484;48.928;10.066;2023-06-22T09:25:09;31.40;93.80
8896;DHT22;4484;48.928;10.066;2023-06-22T09:27:36;31.60;93.70
8896;DHT22;4484;48.928;10.066;2023-06-22T09:30:04;31.90;93.80
8896;DHT22;4484;48.928;10.066;2023-06-22T09:32:31;32.00;93.10
8896;DHT22;4484;48.928;10.066;2023-06-22T09:34:58;32.10;92.00
8896;DHT22;4484;48.928;10.066;2023-06-22T09:37:25;32.40;92.00
8896;DHT22;4484;48.928;10.066;2023-06-22T09:39:52;32.70;91.70
8896;DHT22;4484;48.928;10.066;2023-06-22T09:42:18;33.20;91.60
8896;DHT22;4484;48.928;10.066;2023-06-22T09:44:45;33.90;92.20
8896;DHT22;4484;48.928;10.066;2023-06-22T09:47:12;34.80;92.20
8896;DHT22;4484;48.928;10.066;2023-06-22T09:49:39;35.40;85.30
8896;DHT22;4484;48.928;10.066;2023-06-22T09:52:09;35.50;80.70
8896;DHT22;4484;48.928;10.066;2023-06-22T09:54:38;35.40;80.30
8896;DHT22;4484;48.928;10.066;2023-06-22T09:57:05;35.60;81.50
8896;DHT22;4484;48.928;10.066;2023-06-22T09:59:32;35.90;78.20
8896;DHT22;4484;48.928;10.066;2023-06-22T10:01:59;35.80;77.10
8896;DHT22;4484;48.928;10.066;2023-06-22T10:04:26;36.00;77.30
8896;DHT22;4484;48.928;10.066;2023-06-22T10:06:53;36.50;78.60
8896;DHT22;4484;48.928;10.066;2023-06-22T10:09:20;36.90;75.00
8896;DHT22;4484;48.928;10.066;2023-06-22T10:11:48;37.00;73.40
8896;DHT22;4484;48.928;10.066;2023-06-22T10:14:15;36.90;71.20
8896;DHT22;4484;48.928;10.066;2023-06-22T10:16:42;36.40;71.80
8896;DHT22;4484;48.928;10.066;2023-06-22T10:19:08;36.20;72.60
8896;DHT22;4484;48.928;10.066;2023-06-22T10:21:36;35.70;73.60
8896;DHT22;4484;48.928;10.066;2023-06-22T10:24:03;35.60;74.10
8896;DHT22;4484;48.928;10.066;2023-06-22T10:26:33;35.90;75.20
8896;DHT22;4484;48.928;10.066;2023-06-22T10:29:02;36.40;74.00
8896;DHT22;4484;48.928;10.066;2023-06-22T10:31:41;36.60;72.00
8896;DHT22;4484;48.928;10.066;2023-06-22T10:34:08;36.70;71.90
8896;DHT22;4484;48.928;10.066;2023-06-22T10:36:35;36.90;72.10
8896;DHT22;4484;48.928;10.066;2023-06-22T10:39:02;36.90;70.10
8896;DHT22;4484;48.928;10.066;2023-06-22T10:41:30;36.90;70.90
8896;DHT22;4484;48.928;10.066;2023-06-22T10:43:57;36.90;69.60
8896;DHT22;4484;48.928;10.066;2023-06-22T10:46:25;37.10;70.70
8896;DHT22;4484;48.928;10.066;2023-06-22T10:48:54;37.00;68.00
8896;DHT22;4484;48.928;10.066;2023-06-22T10:51:24;37.10;67.20
8896;DHT22;4484;48.928;10.066;2023-06-22T10:53:51;37.40;70.50
8896;DHT22;4484;48.928;10.066;2023-06-22T10:56:18;37.50;67.60
8896;DHT22;4484;48.928;10.066;2023-06-22T10:58:46;37.70;65.20
8896;DHT22;4484;48.928;10.066;2023-06-22T11:01:13;37.60;65.30
8896;DHT22;4484;48.928;10.066;2023-06-22T11:03:59;37.80;67.20
8896;DHT22;4484;48.928;10.066;2023-06-22T11:06:27;38.00;68.90
8896;DHT22;4484;48.928;10.066;2023-06-22T11:08:54;38.40;69.20
8896;DHT22;4484;48.928;10.066;2023-06-22T11:11:32;38.80;68.90
8896;DHT22;4484;48.928;10.066;2023-06-22T11:13:59;39.10;65.50
8896;DHT22;4484;48.928;10.066;2023-06-22T11:16:27;39.70;67.10
8896;DHT22;4484;48.928;10.066;2023-06-22T11:18:54;39.40;63.00
8896;DHT22;4484;48.928;10.066;2023-06-22T11:21:21;39.70;63.70
8896;DHT22;4484;48.928;10.066;2023-06-22T11:23:48;39.80;60.40
8896;DHT22;4484;48.928;10.066;2023-06-22T11:26:15;39.60;60.60
8896;DHT22;4484;48.928;10.066;2023-06-22T11:28:42;39.40;60.20
8896;DHT22;4484;48.928;10.066;2023-06-22T11:31:09;39.30;59.70
8896;DHT22;4484;48.928;10.066;2023-06-22T11:33:51;39.00;59.50
8896;DHT22;4484;48.928;10.066;2023-06-22T11:36:19;39.10;60.00
8896;DHT22;4484;48.928;10.066;2023-06-22T11:38:46;38.80;60.90
8896;DHT22;4484;48.928;10.066;2023-06-22T11:41:13;38.80;64.50
8896;DHT22;4484;48.928;10.066;2023-06-22T11:43:39;39.10;66.00
8896;DHT22;4484;48.928;10.066;2023-06-22T11:46:06;39.50;65.10
8896;DHT22;4484;48.928;10.066;2023-06-22T11:48:34;40.10;64.70
8896;DHT22;4484;48.928;10.066;2023-06-22T11:51:01;40.50;59.40
8896;DHT22;4484;48.928;10.066;2023-06-22T11:53:29;40.10;58.00
8896;DHT22;4484;48.928;10.066;2023-06-22T11:55:56;40.20;60.30
8896;DHT22;4484;48.928;10.066;2023-06-22T11:58:23;40.40;62.30
8896;DHT22;4484;48.928;10.066;2023-06-22T12:00:50;40.50;61.20
8896;DHT22;4484;48.928;10.066;2023-06-22T12:03:19;40.90;61.40
8896;DHT22;4484;48.928;10.066;2023-06-22T12:05:50;40.70;57.50
8896;DHT22;4484;48.928;10.066;2023-06-22T12:08:17;40.60;57.20
8896;DHT22;4484;48.928;10.066;2023-06-22T12:10:45;40.30;56.60
8896;DHT22;4484;48.928;10.066;2023-06-22T12:13:12;40.00;58.10
8896;DHT22;4484;48.928;10.066;2023-06-22T12:15:39;40.00;59.40
8896;DHT22;4484;48.928;10.066;2023-06-22T12:18:07;39.50;58.00
8896;DHT22;4484;48.928;10.066;2023-06-22T12:20:35;39.30;58.00
8896;DHT22;4484;48.928;10.066;2023-06-22T12:23:02;38.20;59.00
8896;DHT22;4484;48.928;10.066;2023-06-22T12:25:29;37.30;61.20
8896;DHT22;4484;48.928;10.066;2023-06-22T12:27:56;36.90;63.00
8896;DHT22;4484;48.928;10.066;2023-06-22T12:30:23;36.70;64.90
8896;DHT22;4484;48.928;10.066;2023-06-22T12:32:49;36.70;64.90
8896;DHT22;4484;48.928;10.066;2023-06-22T12:35:20;36.80;65.80
8896;DHT22;4484;48.928;10.066;2023-06-22T12:37:47;36.60;62.60
8896;DHT22;4484;48.928;10.066;2023-06-22T12:40:14;36.40;61.80
8896;DHT22;4484;48.928;10.066;2023-06-22T12:42:41;36.00;64.10
8896;DHT22;4484;48.928;10.066;2023-06-22T12:45:09;35.80;64.50
8896;DHT22;4484;48.928;10.066;2023-06-22T12:47:36;35.60;64.20
8896;DHT22;4484;48.928;10.066;2023-06-22T12:50:04;35.70;64.80
8896;DHT22;4484;48.928;10.066;2023-06-22T12:52:31;36.30;68.40
8896;DHT22;4484;48.928;10.066;2023-06-22T12:55:00;36.90;68.60
8896;DHT22;4484;48.928;10.066;2023-06-22T12:57:28;36.90;63.40
8896;DHT22;4484;48.928;10.066;2023-06-22T12:59:54;36.90;64.80
8896;DHT22;4484;48.928;10.066;2023-06-22T13:02:21;36.60;63.00
8896;DHT22;4484;48.928;10.066;2023-06-22T13:04:48;36.40;65.40
8896;DHT22;4484;48.928;10.066;2023-06-22T13:07:15;36.60;65.60
8896;DHT22;4484;48.928;10.066;2023-06-22T13:09:49;36.70;63.10
8896;DHT22;4484;48.928;10.066;2023-06-22T13:12:20;36.60;65.50
8896;DHT22;4484;48.928;10.066;2023-06-22T13:14:47;36.60;64.10
8896;DHT22;4484;48.928;10.066;2023-06-22T13:17:14;36.60;64.80
8896;DHT22;4484;48.928;10.066;2023-06-22T13:19:41;36.40;63.00
8896;DHT22;4484;48.928;10.066;2023-06-22T13:22:29;36.20;63.80
8896;DHT22;4484;48.928;10.066;2023-06-22T13:24:58;36.40;64.50
8896;DHT22;4484;48.928;10.066;2023-06-22T13:27:25;36.80;66.40
8896;DHT22;4484;48.928;10.066;2023-06-22T13:29:53;37.00;66.80
8896;DHT22;4484;48.928;10.066;2023-06-22T13:32:20;37.20;63.30
8896;DHT22;4484;48.928;10.066;2023-06-22T13:34:47;37.00;63.60
8896;DHT22;4484;48.928;10.066;2023-06-22T13:37:14;36.80;62.90
8896;DHT22;4484;48.928;10.066;2023-06-22T13:39:41;36.50;65.20
8896;DHT22;4484;48.928;10.066;2023-06-22T13:42:08;36.30;67.10
8896;DHT22;4484;48.928;10.066;2023-06-22T13:44:35;36.20;67.20
8896;DHT22;4484;48.928;10.066;2023-06-22T13:47:02;36.10;63.60
8896;DHT22;4484;48.928;10.066;2023-06-22T13:49:28;35.90;66.30
8896;DHT22;4484;48.928;10.066;2023-06-22T13:51:55;35.90;68.10
8896;DHT22;4484;48.928;10.066;2023-06-22T13:54:22;35.90;69.80
8896;DHT22;4484;48.928;10.066;2023-06-22T13:56:56;35.90;70.40
8896;DHT22;4484;48.928;10.066;2023-06-22T13:59:23;35.90;69.20
8896;DHT22;4484;48.928;10.066;2023-06-22T14:01:50;36.00;68.90
8896;DHT22;4484;48.928;10.066;2023-06-22T14:04:17;36.20;68.40
8896;DHT22;4484;48.928;10.066;2023-06-22T14:06:44;36.40;68.40
8896;DHT22;4484;48.928;10.066;2023-06-22T14:09:11;36.50;66.60
8896;DHT22;4484;48.928;10.066;2023-06-22T14:11:38;36.40;66.00
8896;DHT22;4484;48.928;10.066;2023-06-22T14:14:05;36.20;64.70
8896;DHT22;4484;48.928;10.066;2023-06-22T14:16:32;36.00;65.10
8896;DHT22;4484;48.928;10.066;2023-06-22T14:18:59;35.90;66.10
8896;DHT22;4484;48.928;10.066;2023-06-22T14:21:26;35.90;66.00
8896;DHT22;4484;48.928;10.066;2023-06-22T14:23:53;35.80;64.80
8896;DHT22;4484;48.928;10.066;2023-06-22T14:26:20;35.90;64.70
8896;DHT22;4484;48.928;10.066;2023-06-22T14:28:48;35.90;65.00
8896;DHT22;4484;48.928;10.066;2023-06-22T14:31:18;36.00;65.00
8896;DHT22;4484;48.928;10.066;2023-06-22T14:33:49;36.00;64.80
8896;DHT22;4484;48.928;10.066;2023-06-22T14:36:16;36.00;64.50
8896;DHT22;4484;48.928;10.066;2023-06-22T14:38:45;35.80;65.80
8896;DHT22;4484;48.928;10.066;2023-06-22T14:41:13;35.60;66.70
8896;DHT22;4484;48.928;10.066;2023-06-22T14:43:46;35.60;67.30
8896;DHT22;4484;48.928;10.066;2023-06-22T14:46:15;35.60;65.80
8896;DHT22;4484;48.928;10.066;2023-06-22T14:48:43;35.70;66.20
8896;DHT22;4484;48.928;10.066;2023-06-22T14:51:10;35.60;64.80
8896;DHT22;4484;48.928;10.066;2023-06-22T14:53:46;35.70;64.80
8896;DHT22;4484;48.928;10.066;2023-06-22T14:56:13;35.90;63.90
8896;DHT22;4484;48.928;10.066;2023-06-22T14:58:42;36.00;63.40
8896;DHT22;4484;48.928;10.066;2023-06-22T15:01:16;36.10;64.10
8896;DHT22;4484;48.928;10.066;2023-06-22T15:03:44;36.30;64.80
8896;DHT22;4484;48.928;10.066;2023-06-22T15:06:11;36.10;62.60
8896;DHT22;4484;48.928;10.066;2023-06-22T15:08:39;35.90;63.90
8896;DHT22;4484;48.928;10.066;2023-06-22T15:11:07;35.70;64.70
8896;DHT22;4484;48.928;10.066;2023-06-22T15:13:34;35.50;64.00
8896;DHT22;4484;48.928;10.066;2023-06-22T15:16:02;35.50;64.80
8896;DHT22;4484;48.928;10.066;2023-06-22T15:18:32;35.60;65.00
8896;DHT22;4484;48.928;10.066;2023-06-22T15:21:03;35.80;64.30
8896;DHT22;4484;48.928;10.066;2023-06-22T15:23:31;35.90;63.60
8896;DHT22;4484;48.928;10.066;2023-06-22T15:26:00;36.10;62.50
8896;DHT22;4484;48.928;10.066;2023-06-22T15:28:28;36.30;62.70
8896;DHT22;4484;48.928;10.066;2023-06-22T15:30:55;36.40;62.40
8896;DHT22;4484;48.928;10.066;2023-06-22T15:33:24;36.60;61.20
8896;DHT22;4484;48.928;10.066;2023-06-22T15:35:51;36.60;58.30
8896;DHT22;4484;48.928;10.066;2023-06-22T15:38:19;36.60;58.30
8896;DHT22;4484;48.928;10.066;2023-06-22T15:40:46;36.60;59.60
8896;DHT22;4484;48.928;10.066;2023-06-22T15:43:13;36.30;59.50
8896;DHT22;4484;48.928;10.066;2023-06-22T15:45:41;36.10;60.10
8896;DHT22;4484;48.928;10.066;2023-06-22T15:48:08;35.90;60.80
8896;DHT22;4484;48.928;10.066;2023-06-22T15:50:35;35.50;60.30
8896;DHT22;4484;48.928;10.066;2023-06-22T15:53:02;35.30;63.10
8896;DHT22;4484;48.928;10.066;2023-06-22T15:55:29;35.10;62.20
8896;DHT22;4484;48.928;10.066;2023-06-22T15:57:58;35.00;61.20